sensor_id;sensor_type;location;lat;lon;timestamp;P1;durP1;ratioP1;P2;durP2;ratioP2
21166;SDS011;10741;52.272;9.580;2022-12-29T00:01:52;3.77;;;3.17;;
21166;SDS011;10741;52.272;9.580;2022-12-29T00:04:17;5.53;;;3.63;;
21166;SDS011;10741;52.272;9.580;2022-12-29T00:06:44;5.67;;;3.50;;
21166;SDS011;10741;52.272;9.580;2022-12-29T00:09:10;5.63;;;3.07;;
21166;SDS011;10741;52.272;9.580;2022-12-29T00:11:38;4.03;;;3.37;;
21166;SDS011;10741;52.272;9.580;2022-12-29T00:14:04;3.83;;;2.63;;
21166;SDS011;10741;52.272;9.580;2022-12-29T00:16:49;5.97;;;2.60;;
21166;SDS011;10741;52.272;9.580;2022-12-29T00:19:14;3.47;;;3.00;;
21166;SDS011;10741;52.272;9.580;2022-12-29T00:21:59;5.03;;;3.23;;
21166;SDS011;10741;52.272;9.580;2022-12-29T00:24:43;4.90;;;2.97;;
21166;SDS011;10741;52.272;9.580;2022-12-29T00:27:28;3.00;;;2.67;;
21166;SDS011;10741;52.272;9.580;2022-12-29T00:30:14;4.17;;;2.60;;
21166;SDS011;10741;52.272;9.580;2022-12-29T00:33:00;3.37;;;2.47;;
21166;SDS011;10741;52.272;9.580;2022-12-29T00:35:52;3.27;;;2.90;;
21166;SDS011;10741;52.272;9.580;2022-12-29T00:38:21;3.73;;;2.33;;
21166;SDS011;10741;52.272;9.580;2022-12-29T00:41:06;5.87;;;2.70;;
21166;SDS011;10741;52.272;9.580;2022-12-29T00:43:50;2.53;;;2.33;;
21166;SDS011;10741;52.272;9.580;2022-12-29T00:46:31;2.67;;;2.37;;
21166;SDS011;10741;52.272;9.580;2022-12-29T00:49:07;3.63;;;2.57;;
21166;SDS011;10741;52.272;9.580;2022-12-29T00:51:54;3.57;;;2.60;;
21166;SDS011;10741;52.272;9.580;2022-12-29T00:54:20;2.60;;;2.40;;
21166;SDS011;10741;52.272;9.580;2022-12-29T00:56:47;4.47;;;2.83;;
21166;SDS011;10741;52.272;9.580;2022-12-29T00:59:13;4.03;;;2.43;;
21166;SDS011;10741;52.272;9.580;2022-12-29T01:01:39;5.07;;;3.13;;
21166;SDS011;10741;52.272;9.580;2022-12-29T01:04:06;5.53;;;2.80;;
21166;SDS011;10741;52.272;9.580;2022-12-29T01:06:32;4.57;;;2.53;;
21166;SDS011;10741;52.272;9.580;2022-12-29T01:08:58;5.40;;;2.57;;
21166;SDS011;10741;52.272;9.580;2022-12-29T01:11:43;2.87;;;2.57;;
21166;SDS011;10741;52.272;9.580;2022-12-29T01:14:09;3.50;;;2.60;;
21166;SDS011;10741;52.272;9.580;2022-12-29T01:16:34;3.73;;;2.60;;
21166;SDS011;10741;52.272;9.580;2022-12-29T01:19:01;3.87;;;2.53;;
21166;SDS011;10741;52.272;9.580;2022-12-29T01:21:28;5.03;;;2.67;;
21166;SDS011;10741;52.272;9.580;2022-12-29T01:23:53;3.10;;;2.70;;
21166;SDS011;10741;52.272;9.580;2022-12-29T01:26:19;2.63;;;2.13;;
21166;SDS011;10741;52.272;9.580;2022-12-29T01:28:45;3.10;;;2.50;;
21166;SDS011;10741;52.272;9.580;2022-12-29T01:31:11;2.93;;;2.30;;
21166;SDS011;10741;52.272;9.580;2022-12-29T01:33:38;2.40;;;2.20;;
21166;SDS011;10741;52.272;9.580;2022-12-29T01:36:05;3.03;;;2.10;;
21166;SDS011;10741;52.272;9.580;2022-12-29T01:38:33;5.50;;;2.40;;
21166;SDS011;10741;52.272;9.580;2022-12-29T01:40:59;3.00;;;2.10;;
21166;SDS011;10741;52.272;9.580;2022-12-29T01:49:19;2.13;;;1.70;;
21166;SDS011;10741;52.272;9.580;2022-12-29T01:51:50;2.30;;;2.10;;
21166;SDS011;10741;52.272;9.580;2022-12-29T01:54:25;1.97;;;1.80;;
21166;SDS011;10741;52.272;9.580;2022-12-29T01:56:59;2.23;;;2.00;;
21166;SDS011;10741;52.272;9.580;2022-12-29T01:59:29;1.97;;;1.77;;
21166;SDS011;10741;52.272;9.580;2022-12-29T02:01:59;2.33;;;2.13;;
21166;SDS011;10741;52.272;9.580;2022-12-29T02:04:26;3.33;;;2.23;;
21166;SDS011;10741;52.272;9.580;2022-12-29T02:07:01;1.87;;;1.77;;
21166;SDS011;10741;52.272;9.580;2022-12-29T02:09:30;2.10;;;1.90;;
21166;SDS011;10741;52.272;9.580;2022-12-29T02:11:56;2.10;;;1.90;;
21166;SDS011;10741;52.272;9.580;2022-12-29T02:14:23;2.20;;;1.90;;
21166;SDS011;10741;52.272;9.580;2022-12-29T02:16:53;2.50;;;1.90;;
21166;SDS011;10741;52.272;9.580;2022-12-29T02:22:42;2.37;;;1.80;;
21166;SDS011;10741;52.272;9.580;2022-12-29T02:33:52;3.50;;;1.93;;
21166;SDS011;10741;52.272;9.580;2022-12-29T02:36:52;2.50;;;1.87;;
21166;SDS011;10741;52.272;9.580;2022-12-29T02:44:56;1.83;;;1.67;;
21166;SDS011;10741;52.272;9.580;2022-12-29T02:51:01;1.70;;;1.60;;
21166;SDS011;10741;52.272;9.580;2022-12-29T02:53:29;1.93;;;1.73;;
21166;SDS011;10741;52.272;9.580;2022-12-29T02:56:15;2.03;;;1.60;;
21166;SDS011;10741;52.272;9.580;2022-12-29T02:58:41;2.70;;;1.93;;
21166;SDS011;10741;52.272;9.580;2022-12-29T03:03:58;4.93;;;2.00;;
21166;SDS011;10741;52.272;9.580;2022-12-29T03:09:35;2.47;;;1.67;;
21166;SDS011;10741;52.272;9.580;2022-12-29T03:14:47;3.17;;;1.97;;
21166;SDS011;10741;52.272;9.580;2022-12-29T03:17:50;2.10;;;1.60;;
21166;SDS011;10741;52.272;9.580;2022-12-29T03:20:23;1.77;;;1.57;;
21166;SDS011;10741;52.272;9.580;2022-12-29T03:22:53;2.30;;;1.57;;
21166;SDS011;10741;52.272;9.580;2022-12-29T03:25:32;2.93;;;1.47;;
21166;SDS011;10741;52.272;9.580;2022-12-29T03:28:03;2.00;;;1.40;;
21166;SDS011;10741;52.272;9.580;2022-12-29T03:30:33;3.67;;;1.20;;
21166;SDS011;10741;52.272;9.580;2022-12-29T03:33:04;2.80;;;1.50;;
21166;SDS011;10741;52.272;9.580;2022-12-29T03:35:34;1.70;;;1.40;;
21166;SDS011;10741;52.272;9.580;2022-12-29T03:38:07;1.40;;;1.30;;
21166;SDS011;10741;52.272;9.580;2022-12-29T03:40:38;2.00;;;1.30;;
21166;SDS011;10741;52.272;9.580;2022-12-29T03:43:06;2.47;;;1.20;;
21166;SDS011;10741;52.272;9.580;2022-12-29T03:45:33;1.53;;;1.33;;
21166;SDS011;10741;52.272;9.580;2022-12-29T03:47:58;1.57;;;1.40;;
21166;SDS011;10741;52.272;9.580;2022-12-29T03:50:24;2.13;;;1.30;;
21166;SDS011;10741;52.272;9.580;2022-12-29T03:52:50;0.97;;;0.93;;
21166;SDS011;10741;52.272;9.580;2022-12-29T03:55:16;1.30;;;1.20;;
21166;SDS011;10741;52.272;9.580;2022-12-29T03:57:41;1.20;;;1.10;;
21166;SDS011;10741;52.272;9.580;2022-12-29T04:00:07;1.27;;;1.10;;
21166;SDS011;10741;52.272;9.580;2022-12-29T04:02:43;1.10;;;1.00;;
21166;SDS011;10741;52.272;9.580;2022-12-29T04:05:09;1.27;;;0.90;;
21166;SDS011;10741;52.272;9.580;2022-12-29T04:07:35;1.00;;;0.90;;
21166;SDS011;10741;52.272;9.580;2022-12-29T04:10:00;1.10;;;1.00;;
21166;SDS011;10741;52.272;9.580;2022-12-29T04:12:26;1.07;;;1.00;;
21166;SDS011;10741;52.272;9.580;2022-12-29T04:14:52;1.70;;;1.00;;
21166;SDS011;10741;52.272;9.580;2022-12-29T04:17:18;1.90;;;1.07;;
21166;SDS011;10741;52.272;9.580;2022-12-29T04:19:44;2.10;;;0.97;;
21166;SDS011;10741;52.272;9.580;2022-12-29T04:22:09;2.33;;;0.93;;
21166;SDS011;10741;52.272;9.580;2022-12-29T04:24:36;1.47;;;1.17;;
21166;SDS011;10741;52.272;9.580;2022-12-29T04:27:02;2.10;;;0.70;;
21166;SDS011;10741;52.272;9.580;2022-12-29T04:29:28;1.23;;;0.80;;
21166;SDS011;10741;52.272;9.580;2022-12-29T04:31:54;1.67;;;0.90;;
21166;SDS011;10741;52.272;9.580;2022-12-29T04:34:19;2.13;;;1.10;;
21166;SDS011;10741;52.272;9.580;2022-12-29T04:36:45;0.90;;;0.90;;
21166;SDS011;10741;52.272;9.580;2022-12-29T04:39:11;1.43;;;0.93;;
21166;SDS011;10741;52.272;9.580;2022-12-29T04:41:36;1.17;;;0.80;;
21166;SDS011;10741;52.272;9.580;2022-12-29T04:44:02;0.70;;;0.70;;
21166;SDS011;10741;52.272;9.580;2022-12-29T04:46:28;0.70;;;0.70;;
21166;SDS011;10741;52.272;9.580;2022-12-29T04:48:54;1.10;;;0.87;;
21166;SDS011;10741;52.272;9.580;2022-12-29T04:51:19;1.37;;;1.27;;
21166;SDS011;10741;52.272;9.580;2022-12-29T04:53:45;2.37;;;0.80;;
21166;SDS011;10741;52.272;9.580;2022-12-29T04:56:11;1.73;;;0.70;;
21166;SDS011;10741;52.272;9.580;2022-12-29T04:58:37;0.80;;;0.60;;
21166;SDS011;10741;52.272;9.580;2022-12-29T05:01:02;0.70;;;0.70;;
21166;SDS011;10741;52.272;9.580;2022-12-29T05:03:28;1.53;;;0.70;;
21166;SDS011;10741;52.272;9.580;2022-12-29T05:05:54;1.03;;;0.60;;
21166;SDS011;10741;52.272;9.580;2022-12-29T05:08:21;0.87;;;0.80;;
21166;SDS011;10741;52.272;9.580;2022-12-29T05:10:49;0.70;;;0.70;;
21166;SDS011;10741;52.272;9.580;2022-12-29T05:13:15;1.10;;;1.00;;
21166;SDS011;10741;52.272;9.580;2022-12-29T05:15:45;1.20;;;0.80;;
21166;SDS011;10741;52.272;9.580;2022-12-29T05:18:15;0.77;;;0.77;;
21166;SDS011;10741;52.272;9.580;2022-12-29T05:20:41;1.00;;;0.90;;
21166;SDS011;10741;52.272;9.580;2022-12-29T05:23:07;1.03;;;0.80;;
21166;SDS011;10741;52.272;9.580;2022-12-29T05:25:32;1.43;;;0.90;;
21166;SDS011;10741;52.272;9.580;2022-12-29T05:27:58;0.80;;;0.70;;
21166;SDS011;10741;52.272;9.580;2022-12-29T05:30:24;0.73;;;0.70;;
21166;SDS011;10741;52.272;9.580;2022-12-29T05:32:50;1.37;;;0.90;;
21166;SDS011;10741;52.272;9.580;2022-12-29T05:35:15;1.40;;;0.70;;
21166;SDS011;10741;52.272;9.580;2022-12-29T05:37:41;1.30;;;0.90;;
21166;SDS011;10741;52.272;9.580;2022-12-29T05:40:07;0.70;;;0.70;;
21166;SDS011;10741;52.272;9.580;2022-12-29T05:42:33;1.20;;;0.67;;
21166;SDS011;10741;52.272;9.580;2022-12-29T05:44:59;1.13;;;0.70;;
21166;SDS011;10741;52.272;9.580;2022-12-29T05:47:24;0.93;;;0.90;;
21166;SDS011;10741;52.272;9.580;2022-12-29T05:49:50;2.30;;;0.90;;
21166;SDS011;10741;52.272;9.580;2022-12-29T05:52:16;1.37;;;0.70;;
21166;SDS011;10741;52.272;9.580;2022-12-29T05:54:42;1.03;;;0.93;;
21166;SDS011;10741;52.272;9.580;2022-12-29T05:57:08;1.43;;;1.00;;
21166;SDS011;10741;52.272;9.580;2022-12-29T05:59:34;1.47;;;1.23;;
21166;SDS011;10741;52.272;9.580;2022-12-29T06:02:00;2.57;;;1.17;;
21166;SDS011;10741;52.272;9.580;2022-12-29T06:04:26;2.13;;;1.60;;
21166;SDS011;10741;52.272;9.580;2022-12-29T06:06:52;0.87;;;0.70;;
21166;SDS011;10741;52.272;9.580;2022-12-29T06:09:17;2.30;;;1.40;;
21166;SDS011;10741;52.272;9.580;2022-12-29T06:11:43;1.80;;;1.10;;
21166;SDS011;10741;52.272;9.580;2022-12-29T06:14:09;1.87;;;1.70;;
21166;SDS011;10741;52.272;9.580;2022-12-29T06:16:34;1.87;;;1.67;;
21166;SDS011;10741;52.272;9.580;2022-12-29T06:19:01;1.87;;;1.23;;
21166;SDS011;10741;52.272;9.580;2022-12-29T06:21:26;3.20;;;1.33;;
21166;SDS011;10741;52.272;9.580;2022-12-29T06:23:52;3.50;;;1.20;;
21166;SDS011;10741;52.272;9.580;2022-12-29T06:26:18;2.07;;;1.20;;
21166;SDS011;10741;52.272;9.580;2022-12-29T06:28:44;2.07;;;1.20;;
21166;SDS011;10741;52.272;9.580;2022-12-29T06:31:10;1.83;;;1.20;;
21166;SDS011;10741;52.272;9.580;2022-12-29T06:33:37;1.70;;;1.27;;
21166;SDS011;10741;52.272;9.580;2022-12-29T06:36:03;0.90;;;0.80;;
21166;SDS011;10741;52.272;9.580;2022-12-29T06:38:29;1.33;;;1.00;;
21166;SDS011;10741;52.272;9.580;2022-12-29T06:40:55;1.00;;;0.80;;
21166;SDS011;10741;52.272;9.580;2022-12-29T06:43:20;1.47;;;0.80;;
21166;SDS011;10741;52.272;9.580;2022-12-29T06:45:46;3.07;;;1.13;;
21166;SDS011;10741;52.272;9.580;2022-12-29T06:48:12;1.93;;;1.20;;
21166;SDS011;10741;52.272;9.580;2022-12-29T06:50:38;1.60;;;0.67;;
21166;SDS011;10741;52.272;9.580;2022-12-29T06:53:03;0.70;;;0.70;;
21166;SDS011;10741;52.272;9.580;2022-12-29T06:55:29;0.63;;;0.63;;
21166;SDS011;10741;52.272;9.580;2022-12-29T06:57:55;1.17;;;0.70;;
21166;SDS011;10741;52.272;9.580;2022-12-29T07:00:23;1.33;;;1.17;;
21166;SDS011;10741;52.272;9.580;2022-12-29T07:02:49;1.10;;;1.00;;
21166;SDS011;10741;52.272;9.580;2022-12-29T07:05:15;1.50;;;0.90;;
21166;SDS011;10741;52.272;9.580;2022-12-29T07:07:41;1.37;;;1.10;;
21166;SDS011;10741;52.272;9.580;2022-12-29T07:10:06;1.03;;;1.00;;
21166;SDS011;10741;52.272;9.580;2022-12-29T07:12:32;1.60;;;1.10;;
21166;SDS011;10741;52.272;9.580;2022-12-29T07:14:58;1.60;;;1.50;;
21166;SDS011;10741;52.272;9.580;2022-12-29T07:17:24;1.07;;;0.97;;
21166;SDS011;10741;52.272;9.580;2022-12-29T07:19:49;2.40;;;1.10;;
21166;SDS011;10741;52.272;9.580;2022-12-29T07:22:15;3.00;;;1.00;;
21166;SDS011;10741;52.272;9.580;2022-12-29T07:24:41;0.90;;;0.90;;
21166;SDS011;10741;52.272;9.580;2022-12-29T07:27:08;1.50;;;1.40;;
21166;SDS011;10741;52.272;9.580;2022-12-29T07:29:34;1.10;;;1.00;;
21166;SDS011;10741;52.272;9.580;2022-12-29T07:32:02;4.07;;;0.80;;
21166;SDS011;10741;52.272;9.580;2022-12-29T07:34:28;1.03;;;0.80;;
21166;SDS011;10741;52.272;9.580;2022-12-29T07:36:54;1.70;;;1.00;;
21166;SDS011;10741;52.272;9.580;2022-12-29T07:39:19;1.43;;;0.80;;
21166;SDS011;10741;52.272;9.580;2022-12-29T07:41:45;1.70;;;0.70;;
21166;SDS011;10741;52.272;9.580;2022-12-29T07:44:11;0.73;;;0.73;;
21166;SDS011;10741;52.272;9.580;2022-12-29T07:46:37;0.50;;;0.50;;
21166;SDS011;10741;52.272;9.580;2022-12-29T07:49:02;0.80;;;0.70;;
21166;SDS011;10741;52.272;9.580;2022-12-29T07:51:28;1.00;;;0.77;;
21166;SDS011;10741;52.272;9.580;2022-12-29T07:53:54;0.80;;;0.80;;
21166;SDS011;10741;52.272;9.580;2022-12-29T07:56:19;2.17;;;0.80;;
21166;SDS011;10741;52.272;9.580;2022-12-29T07:58:45;2.10;;;0.87;;
21166;SDS011;10741;52.272;9.580;2022-12-29T08:01:11;1.97;;;0.90;;
21166;SDS011;10741;52.272;9.580;2022-12-29T08:03:36;1.20;;;0.90;;
21166;SDS011;10741;52.272;9.580;2022-12-29T08:06:03;1.53;;;0.80;;
21166;SDS011;10741;52.272;9.580;2022-12-29T08:08:28;1.30;;;1.03;;
21166;SDS011;10741;52.272;9.580;2022-12-29T08:10:54;1.17;;;1.00;;
21166;SDS011;10741;52.272;9.580;2022-12-29T08:13:20;1.97;;;1.23;;
21166;SDS011;10741;52.272;9.580;2022-12-29T08:15:45;3.90;;;1.33;;
21166;SDS011;10741;52.272;9.580;2022-12-29T08:18:11;3.17;;;1.23;;
21166;SDS011;10741;52.272;9.580;2022-12-29T08:20:37;2.07;;;1.40;;
21166;SDS011;10741;52.272;9.580;2022-12-29T08:23:03;1.50;;;1.30;;
21166;SDS011;10741;52.272;9.580;2022-12-29T08:25:28;1.90;;;1.27;;
21166;SDS011;10741;52.272;9.580;2022-12-29T08:27:54;4.47;;;1.70;;
21166;SDS011;10741;52.272;9.580;2022-12-29T08:30:20;1.53;;;1.40;;
21166;SDS011;10741;52.272;9.580;2022-12-29T08:32:45;2.60;;;1.33;;
21166;SDS011;10741;52.272;9.580;2022-12-29T08:35:11;1.97;;;1.50;;
21166;SDS011;10741;52.272;9.580;2022-12-29T08:37:37;3.43;;;1.87;;
21166;SDS011;10741;52.272;9.580;2022-12-29T08:40:03;2.80;;;1.90;;
21166;SDS011;10741;52.272;9.580;2022-12-29T08:42:31;2.80;;;1.87;;
21166;SDS011;10741;52.272;9.580;2022-12-29T08:44:58;4.43;;;2.40;;
21166;SDS011;10741;52.272;9.580;2022-12-29T08:47:24;1.97;;;1.47;;
21166;SDS011;10741;52.272;9.580;2022-12-29T08:49:50;1.80;;;1.70;;
21166;SDS011;10741;52.272;9.580;2022-12-29T08:52:16;6.40;;;2.20;;
21166;SDS011;10741;52.272;9.580;2022-12-29T08:54:42;2.73;;;1.80;;
21166;SDS011;10741;52.272;9.580;2022-12-29T08:57:08;2.77;;;1.60;;
21166;SDS011;10741;52.272;9.580;2022-12-29T08:59:34;3.53;;;1.57;;
21166;SDS011;10741;52.272;9.580;2022-12-29T09:02:00;3.87;;;1.50;;
21166;SDS011;10741;52.272;9.580;2022-12-29T09:04:26;5.43;;;1.40;;
21166;SDS011;10741;52.272;9.580;2022-12-29T09:06:53;4.87;;;1.73;;
21166;SDS011;10741;52.272;9.580;2022-12-29T09:09:19;3.73;;;1.30;;
21166;SDS011;10741;52.272;9.580;2022-12-29T09:11:45;1.33;;;1.10;;
21166;SDS011;10741;52.272;9.580;2022-12-29T09:14:11;1.37;;;1.03;;
21166;SDS011;10741;52.272;9.580;2022-12-29T09:16:37;2.70;;;1.40;;
21166;SDS011;10741;52.272;9.580;2022-12-29T09:19:05;4.53;;;1.00;;
21166;SDS011;10741;52.272;9.580;2022-12-29T09:21:30;2.47;;;1.10;;
21166;SDS011;10741;52.272;9.580;2022-12-29T09:23:56;2.13;;;1.10;;
21166;SDS011;10741;52.272;9.580;2022-12-29T09:26:22;1.33;;;0.90;;
21166;SDS011;10741;52.272;9.580;2022-12-29T09:28:47;3.20;;;1.10;;
21166;SDS011;10741;52.272;9.580;2022-12-29T09:31:13;2.37;;;1.40;;
21166;SDS011;10741;52.272;9.580;2022-12-29T09:33:39;2.17;;;1.27;;
21166;SDS011;10741;52.272;9.580;2022-12-29T09:36:05;1.67;;;1.03;;
21166;SDS011;10741;52.272;9.580;2022-12-29T09:38:31;2.57;;;1.10;;
21166;SDS011;10741;52.272;9.580;2022-12-29T09:44:08;3.00;;;1.37;;
21166;SDS011;10741;52.272;9.580;2022-12-29T09:46:45;3.33;;;1.37;;
21166;SDS011;10741;52.272;9.580;2022-12-29T09:51:54;2.30;;;1.10;;
21166;SDS011;10741;52.272;9.580;2022-12-29T09:57:25;2.67;;;1.40;;
21166;SDS011;10741;52.272;9.580;2022-12-29T10:00:03;2.07;;;1.60;;
21166;SDS011;10741;52.272;9.580;2022-12-29T10:02:37;4.47;;;1.50;;
21166;SDS011;10741;52.272;9.580;2022-12-29T10:05:13;3.97;;;1.67;;
21166;SDS011;10741;52.272;9.580;2022-12-29T10:08:07;1.87;;;1.37;;
21166;SDS011;10741;52.272;9.580;2022-12-29T10:10:50;4.30;;;1.77;;
21166;SDS011;10741;52.272;9.580;2022-12-29T10:13:33;2.60;;;1.70;;
21166;SDS011;10741;52.272;9.580;2022-12-29T10:24:57;2.83;;;2.33;;
21166;SDS011;10741;52.272;9.580;2022-12-29T10:27:27;5.47;;;1.70;;
21166;SDS011;10741;52.272;9.580;2022-12-29T10:29:56;2.43;;;1.60;;
21166;SDS011;10741;52.272;9.580;2022-12-29T10:32:34;2.97;;;1.37;;
21166;SDS011;10741;52.272;9.580;2022-12-29T10:35:09;4.13;;;1.50;;
21166;SDS011;10741;52.272;9.580;2022-12-29T10:37:50;3.57;;;1.60;;
21166;SDS011;10741;52.272;9.580;2022-12-29T10:43:01;3.57;;;1.70;;
21166;SDS011;10741;52.272;9.580;2022-12-29T10:45:30;3.13;;;1.57;;
21166;SDS011;10741;52.272;9.580;2022-12-29T10:48:00;3.37;;;1.50;;
21166;SDS011;10741;52.272;9.580;2022-12-29T10:50:34;2.23;;;1.33;;
21166;SDS011;10741;52.272;9.580;2022-12-29T10:53:01;4.03;;;1.30;;
21166;SDS011;10741;52.272;9.580;2022-12-29T10:55:33;5.47;;;1.70;;
21166;SDS011;10741;52.272;9.580;2022-12-29T10:58:02;2.27;;;1.63;;
21166;SDS011;10741;52.272;9.580;2022-12-29T11:00:31;3.00;;;1.60;;
21166;SDS011;10741;52.272;9.580;2022-12-29T11:08:25;1.70;;;1.30;;
21166;SDS011;10741;52.272;9.580;2022-12-29T11:10:59;3.13;;;1.50;;
21166;SDS011;10741;52.272;9.580;2022-12-29T11:13:28;2.13;;;1.33;;
21166;SDS011;10741;52.272;9.580;2022-12-29T11:15:56;2.40;;;1.10;;
21166;SDS011;10741;52.272;9.580;2022-12-29T11:21:03;3.30;;;1.43;;
21166;SDS011;10741;52.272;9.580;2022-12-29T11:23:35;5.57;;;1.70;;
21166;SDS011;10741;52.272;9.580;2022-12-29T11:26:16;5.17;;;1.23;;
21166;SDS011;10741;52.272;9.580;2022-12-29T11:39:39;5.87;;;1.23;;
21166;SDS011;10741;52.272;9.580;2022-12-29T11:42:23;4.70;;;1.47;;
21166;SDS011;10741;52.272;9.580;2022-12-29T11:45:14;5.77;;;1.37;;
21166;SDS011;10741;52.272;9.580;2022-12-29T11:47:50;2.40;;;1.03;;
21166;SDS011;10741;52.272;9.580;2022-12-29T11:50:24;5.30;;;2.57;;
21166;SDS011;10741;52.272;9.580;2022-12-29T11:53:01;3.90;;;0.93;;
21166;SDS011;10741;52.272;9.580;2022-12-29T11:55:30;2.40;;;1.10;;
21166;SDS011;10741;52.272;9.580;2022-12-29T11:57:58;3.63;;;1.00;;
21166;SDS011;10741;52.272;9.580;2022-12-29T12:00:27;5.37;;;1.13;;
21166;SDS011;10741;52.272;9.580;2022-12-29T12:02:57;4.10;;;1.10;;
21166;SDS011;10741;52.272;9.580;2022-12-29T12:05:40;3.80;;;0.90;;
21166;SDS011;10741;52.272;9.580;2022-12-29T12:10:51;2.57;;;0.80;;
21166;SDS011;10741;52.272;9.580;2022-12-29T12:13:35;5.37;;;1.10;;
21166;SDS011;10741;52.272;9.580;2022-12-29T12:16:21;11.90;;;6.77;;
21166;SDS011;10741;52.272;9.580;2022-12-29T12:18:56;7.23;;;4.60;;
21166;SDS011;10741;52.272;9.580;2022-12-29T12:21:36;5.37;;;2.43;;
21166;SDS011;10741;52.272;9.580;2022-12-29T12:27:00;4.87;;;1.67;;
21166;SDS011;10741;52.272;9.580;2022-12-29T12:29:41;3.20;;;1.13;;
21166;SDS011;10741;52.272;9.580;2022-12-29T12:34:47;4.40;;;1.30;;
21166;SDS011;10741;52.272;9.580;2022-12-29T12:45:26;5.30;;;1.07;;
21166;SDS011;10741;52.272;9.580;2022-12-29T12:54:01;4.50;;;1.27;;
21166;SDS011;10741;52.272;9.580;2022-12-29T12:56:37;1.53;;;0.90;;
21166;SDS011;10741;52.272;9.580;2022-12-29T13:01:55;3.20;;;1.17;;
21166;SDS011;10741;52.272;9.580;2022-12-29T13:12:59;3.23;;;1.23;;
21166;SDS011;10741;52.272;9.580;2022-12-29T13:20:47;3.20;;;1.03;;
21166;SDS011;10741;52.272;9.580;2022-12-29T13:23:29;4.03;;;1.40;;
21166;SDS011;10741;52.272;9.580;2022-12-29T13:26:08;4.00;;;1.23;;
21166;SDS011;10741;52.272;9.580;2022-12-29T13:28:57;3.63;;;1.40;;
21166;SDS011;10741;52.272;9.580;2022-12-29T13:31:50;2.43;;;1.00;;
21166;SDS011;10741;52.272;9.580;2022-12-29T13:34:22;3.83;;;1.37;;
21166;SDS011;10741;52.272;9.580;2022-12-29T13:37:10;5.63;;;1.40;;
21166;SDS011;10741;52.272;9.580;2022-12-29T13:39:58;3.73;;;2.00;;
21166;SDS011;10741;52.272;9.580;2022-12-29T13:42:28;4.53;;;1.47;;
21166;SDS011;10741;52.272;9.580;2022-12-29T13:44:57;4.63;;;1.47;;
21166;SDS011;10741;52.272;9.580;2022-12-29T13:47:32;4.23;;;1.40;;
21166;SDS011;10741;52.272;9.580;2022-12-29T13:50:04;5.77;;;1.70;;
21166;SDS011;10741;52.272;9.580;2022-12-29T13:55:38;5.37;;;1.60;;
21166;SDS011;10741;52.272;9.580;2022-12-29T13:58:20;4.83;;;1.50;;
21166;SDS011;10741;52.272;9.580;2022-12-29T14:01:00;2.23;;;0.90;;
21166;SDS011;10741;52.272;9.580;2022-12-29T14:06:16;2.87;;;1.00;;
21166;SDS011;10741;52.272;9.580;2022-12-29T14:08:45;2.40;;;1.03;;
21166;SDS011;10741;52.272;9.580;2022-12-29T14:11:14;3.10;;;1.10;;
21166;SDS011;10741;52.272;9.580;2022-12-29T14:13:45;5.23;;;1.80;;
21166;SDS011;10741;52.272;9.580;2022-12-29T14:16:45;5.43;;;1.30;;
21166;SDS011;10741;52.272;9.580;2022-12-29T14:19:28;8.00;;;1.20;;
21166;SDS011;10741;52.272;9.580;2022-12-29T14:22:02;4.80;;;1.13;;
21166;SDS011;10741;52.272;9.580;2022-12-29T14:26:58;4.97;;;1.50;;
21166;SDS011;10741;52.272;9.580;2022-12-29T14:31:50;3.87;;;1.30;;
21166;SDS011;10741;52.272;9.580;2022-12-29T14:36:53;4.27;;;1.33;;
21166;SDS011;10741;52.272;9.580;2022-12-29T14:47:50;5.90;;;1.83;;
21166;SDS011;10741;52.272;9.580;2022-12-29T14:50:18;5.13;;;1.83;;
21166;SDS011;10741;52.272;9.580;2022-12-29T14:53:00;5.43;;;2.00;;
21166;SDS011;10741;52.272;9.580;2022-12-29T14:55:30;6.20;;;1.77;;
21166;SDS011;10741;52.272;9.580;2022-12-29T14:58:04;5.67;;;1.90;;
21166;SDS011;10741;52.272;9.580;2022-12-29T15:00:39;4.40;;;1.97;;
21166;SDS011;10741;52.272;9.580;2022-12-29T15:03:07;4.67;;;1.57;;
21166;SDS011;10741;52.272;9.580;2022-12-29T15:08:12;11.90;;;5.83;;
21166;SDS011;10741;52.272;9.580;2022-12-29T15:10:42;7.23;;;2.23;;
21166;SDS011;10741;52.272;9.580;2022-12-29T15:13:17;7.53;;;2.63;;
21166;SDS011;10741;52.272;9.580;2022-12-29T15:15:46;8.67;;;1.73;;
21166;SDS011;10741;52.272;9.580;2022-12-29T15:18:25;2.70;;;1.70;;
21166;SDS011;10741;52.272;9.580;2022-12-29T15:20:58;5.57;;;2.03;;
21166;SDS011;10741;52.272;9.580;2022-12-29T15:23:30;6.63;;;2.80;;
21166;SDS011;10741;52.272;9.580;2022-12-29T15:26:05;5.73;;;2.10;;
21166;SDS011;10741;52.272;9.580;2022-12-29T15:28:42;5.87;;;1.70;;
21166;SDS011;10741;52.272;9.580;2022-12-29T15:31:12;7.27;;;2.23;;
21166;SDS011;10741;52.272;9.580;2022-12-29T15:34:08;4.77;;;1.87;;
21166;SDS011;10741;52.272;9.580;2022-12-29T15:36:42;5.00;;;2.10;;
21166;SDS011;10741;52.272;9.580;2022-12-29T15:39:18;4.90;;;1.80;;
21166;SDS011;10741;52.272;9.580;2022-12-29T15:41:55;4.07;;;1.90;;
21166;SDS011;10741;52.272;9.580;2022-12-29T15:44:40;2.93;;;2.00;;
21166;SDS011;10741;52.272;9.580;2022-12-29T15:47:15;7.07;;;2.40;;
21166;SDS011;10741;52.272;9.580;2022-12-29T15:49:49;5.00;;;1.60;;
21166;SDS011;10741;52.272;9.580;2022-12-29T15:52:19;5.17;;;2.30;;
21166;SDS011;10741;52.272;9.580;2022-12-29T15:54:48;4.13;;;2.07;;
21166;SDS011;10741;52.272;9.580;2022-12-29T15:57:21;7.97;;;2.40;;
21166;SDS011;10741;52.272;9.580;2022-12-29T15:59:49;5.27;;;2.27;;
21166;SDS011;10741;52.272;9.580;2022-12-29T16:02:15;4.93;;;1.80;;
21166;SDS011;10741;52.272;9.580;2022-12-29T16:04:41;7.20;;;2.53;;
21166;SDS011;10741;52.272;9.580;2022-12-29T16:07:24;4.33;;;1.90;;
21166;SDS011;10741;52.272;9.580;2022-12-29T16:09:56;5.07;;;2.10;;
21166;SDS011;10741;52.272;9.580;2022-12-29T16:12:25;3.93;;;1.90;;
21166;SDS011;10741;52.272;9.580;2022-12-29T16:14:59;8.20;;;2.43;;
21166;SDS011;10741;52.272;9.580;2022-12-29T16:17:28;8.43;;;2.17;;
21166;SDS011;10741;52.272;9.580;2022-12-29T16:19:57;6.77;;;1.93;;
21166;SDS011;10741;52.272;9.580;2022-12-29T16:22:29;7.07;;;2.33;;
21166;SDS011;10741;52.272;9.580;2022-12-29T16:25:03;5.13;;;2.27;;
21166;SDS011;10741;52.272;9.580;2022-12-29T16:27:41;6.17;;;2.20;;
21166;SDS011;10741;52.272;9.580;2022-12-29T16:32:48;6.07;;;2.20;;
21166;SDS011;10741;52.272;9.580;2022-12-29T16:35:17;14.07;;;5.23;;
21166;SDS011;10741;52.272;9.580;2022-12-29T16:37:43;12.67;;;4.93;;
21166;SDS011;10741;52.272;9.580;2022-12-29T16:40:26;11.07;;;5.20;;
21166;SDS011;10741;52.272;9.580;2022-12-29T16:43:04;9.57;;;3.17;;
21166;SDS011;10741;52.272;9.580;2022-12-29T16:50:38;6.67;;;1.70;;
21166;SDS011;10741;52.272;9.580;2022-12-29T16:53:06;7.00;;;1.77;;
21166;SDS011;10741;52.272;9.580;2022-12-29T16:55:47;4.67;;;1.30;;
21166;SDS011;10741;52.272;9.580;2022-12-29T16:58:18;8.17;;;1.63;;
21166;SDS011;10741;52.272;9.580;2022-12-29T17:00:46;6.40;;;1.40;;
21166;SDS011;10741;52.272;9.580;2022-12-29T17:03:12;5.90;;;1.60;;
21166;SDS011;10741;52.272;9.580;2022-12-29T17:05:39;3.93;;;1.57;;
21166;SDS011;10741;52.272;9.580;2022-12-29T17:08:18;7.73;;;2.70;;
21166;SDS011;10741;52.272;9.580;2022-12-29T17:10:51;5.50;;;1.27;;
21166;SDS011;10741;52.272;9.580;2022-12-29T17:13:37;5.73;;;1.53;;
21166;SDS011;10741;52.272;9.580;2022-12-29T17:16:04;4.70;;;1.40;;
21166;SDS011;10741;52.272;9.580;2022-12-29T17:18:34;3.30;;;1.13;;
21166;SDS011;10741;52.272;9.580;2022-12-29T17:21:00;7.27;;;1.50;;
21166;SDS011;10741;52.272;9.580;2022-12-29T17:23:26;5.83;;;1.43;;
21166;SDS011;10741;52.272;9.580;2022-12-29T17:25:54;4.37;;;1.60;;
21166;SDS011;10741;52.272;9.580;2022-12-29T17:28:29;5.13;;;1.50;;
21166;SDS011;10741;52.272;9.580;2022-12-29T17:31:00;5.67;;;1.50;;
21166;SDS011;10741;52.272;9.580;2022-12-29T17:33:30;4.17;;;1.13;;